Time;durP1;ratioP1;P1;durP2;ratioP2;P2;SDS_P1;SDS_P2;PMS_P1;PMS_P2;Temp;Humidity;BMP_temperature;BMP_pressure;BME280_temperature;BME280_humidity;BME280_pressure;Samples;Min_cycle;Max_cycle;Signal;HPM_P1;HPM_P2
2022/11/25 00:01:29;;;;;;;24.08;4.63;;;7.20;99.90;;;;;;5089671;28;20106;-79
2022/11/25 00:03:56;;;;;;;26.77;4.22;;;7.10;99.90;;;;;;5071320;28;20046;-83
2022/11/25 00:06:32;;;;;;;22.42;4.47;;;7.20;99.90;;;;;;5090338;28;20028;-79
2022/11/25 00:09:02;;;;;;;28.08;4.93;;;7.30;99.90;;;;;;5084861;28;20044;-81
2022/11/25 00:11:27;;;;;;;32.67;5.72;;;7.00;99.90;;;;;;5087903;28;20044;-81
2022/11/25 00:13:54;;;;;;;23.00;4.60;;;7.00;99.90;;;;;;5091470;28;20046;-83
2022/11/25 00:16:21;;;;;;;22.90;4.30;;;7.30;99.90;;;;;;5102414;28;20097;-80
2022/11/25 00:18:49;;;;;;;23.77;4.75;;;7.20;99.90;;;;;;5092320;28;20047;-85
2022/11/25 00:21:17;;;;;;;29.17;4.40;;;7.20;99.90;;;;;;5076203;28;20075;-82
2022/11/25 00:23:44;;;;;;;22.77;5.03;;;7.10;99.90;;;;;;5097999;28;20048;-83
2022/11/25 00:26:33;;;;;;;31.80;4.75;;;7.20;99.90;;;;;;5090257;28;20053;-79
2022/11/25 00:29:01;;;;;;;25.42;5.25;;;7.20;99.90;;;;;;5094555;28;20063;-85
2022/11/25 00:31:29;;;;;;;26.73;4.50;;;7.00;99.90;;;;;;5084749;28;20391;-80
2022/11/25 00:33:55;;;;;;;25.08;4.53;;;7.20;99.90;;;;;;5088282;28;20562;-80
2022/11/25 00:36:27;;;;;;;22.63;4.65;;;7.10;99.90;;;;;;5086953;28;20075;-80
2022/11/25 00:38:55;;;;;;;25.33;4.25;;;7.20;99.90;;;;;;5069032;28;20393;-80
2022/11/25 00:47:00;;;;;;;23.25;3.95;;;7.20;99.90;;;;;;5087330;28;20051;-85
2022/11/25 00:49:26;;;;;;;27.00;4.75;;;7.20;99.90;;;;;;5115256;27;20054;-80
2022/11/25 00:51:52;;;;;;;18.80;4.60;;;7.40;99.90;;;;;;5071063;28;20040;-83
2022/11/25 00:54:18;;;;;;;20.42;4.30;;;7.30;99.90;;;;;;5085687;28;20039;-79
2022/11/25 00:56:44;;;;;;;20.65;4.60;;;7.40;99.90;;;;;;5080079;28;20040;-83
2022/11/25 00:59:10;;;;;;;23.60;4.65;;;7.20;99.90;;;;;;5095375;27;20051;-81
2022/11/25 01:01:35;;;;;;;29.60;5.10;;;7.40;99.90;;;;;;5094907;28;20552;-84
2022/11/25 01:04:16;;;;;;;24.58;5.20;;;7.10;99.90;;;;;;5043209;28;20044;-83
2022/11/25 01:06:42;;;;;;;17.95;4.82;;;7.20;99.90;;;;;;5003825;28;20060;-85
2022/11/25 01:09:11;;;;;;;20.88;4.20;;;7.10;99.90;;;;;;5036279;28;20155;-85
2022/11/25 01:11:37;;;;;;;22.90;4.18;;;7.10;99.90;;;;;;5003396;28;20052;-84
2022/11/25 01:14:03;;;;;;;24.00;4.70;;;7.30;99.90;;;;;;5033200;28;20550;-83
2022/11/25 01:16:30;;;;;;;24.15;4.82;;;7.10;99.90;;;;;;5007276;28;20037;-82
2022/11/25 01:19:00;;;;;;;27.40;4.20;;;7.30;99.90;;;;;;5017161;28;20048;-88
2022/11/25 01:21:29;;;;;;;22.60;4.80;;;7.10;99.90;;;;;;5024508;28;20106;-80
2022/11/25 01:23:59;;;;;;;21.20;4.40;;;7.20;99.90;;;;;;5021283;28;20130;-83
2022/11/25 01:26:26;;;;;;;21.65;3.95;;;7.20;99.90;;;;;;5002015;28;20035;-79
2022/11/25 01:28:57;;;;;;;26.10;5.10;;;7.20;99.90;;;;;;5033323;28;20698;-82
2022/11/25 01:31:25;;;;;;;23.25;4.75;;;7.00;99.90;;;;;;5003389;28;20034;-85
2022/11/25 01:34:06;;;;;;;17.73;4.32;;;7.30;99.90;;;;;;5020890;28;20150;-81
2022/11/25 01:36:32;;;;;;;24.50;4.07;;;7.20;99.90;;;;;;5061814;28;20044;-84
2022/11/25 01:38:59;;;;;;;24.45;4.63;;;7.00;99.90;;;;;;5067224;28;20040;-82
2022/11/25 01:41:28;;;;;;;31.17;5.45;;;7.00;99.90;;;;;;5052604;28;20036;-80
2022/11/25 01:44:13;;;;;;;21.83;5.07;;;7.10;99.90;;;;;;5064618;28;20800;-80
2022/11/25 01:46:45;;;;;;;;;;;7.00;99.90;;;;;;5067902;28;20064;-84
2022/11/25 01:49:25;;;;;;;21.17;4.65;;;7.20;99.90;;;;;;5082451;28;19941;-83
2022/11/25 01:52:17;;;;;;;19.75;4.13;;;6.80;99.90;;;;;;5057981;28;20084;-80
2022/11/25 01:58:32;;;;;;;24.77;4.95;;;7.00;99.90;;;;;;5087334;28;20111;-81
2022/11/25 02:00:58;;;;;;;25.00;5.00;;;6.90;99.90;;;;;;5118472;27;20077;-81
2022/11/25 02:03:28;;;;;;;22.02;5.32;;;7.00;99.90;;;;;;5089546;27;20205;-79
2022/11/25 02:06:01;;;;;;;24.67;5.55;;;7.00;99.90;;;;;;5115697;27;20078;-82
2022/11/25 02:08:28;;;;;;;33.75;5.38;;;7.00;99.90;;;;;;5087624;28;20108;-81
2022/11/25 02:10:55;;;;;;;29.75;5.85;;;7.00;99.90;;;;;;5085527;27;20075;-84
2022/11/25 02:13:22;;;;;;;29.20;5.20;;;7.00;99.90;;;;;;5079996;28;20138;-83
2022/11/25 02:15:48;;;;;;;26.92;5.45;;;7.30;99.90;;;;;;5094587;27;20038;-82
2022/11/25 02:18:14;;;;;;;23.88;5.18;;;7.00;99.90;;;;;;5080663;28;20027;-80
2022/11/25 02:20:40;;;;;;;32.42;5.95;;;7.10;99.90;;;;;;5098504;27;20051;-80
2022/11/25 02:23:49;;;;;;;24.40;5.10;;;7.20;99.90;;;;;;5079912;27;20074;-82
2022/11/25 02:26:15;;;;;;;22.52;5.07;;;7.20;99.90;;;;;;5022795;28;20044;-81
2022/11/25 02:28:40;;;;;;;26.90;4.97;;;7.20;99.90;;;;;;5025746;28;20075;-83
2022/11/25 02:31:09;;;;;;;20.35;5.30;;;7.30;99.90;;;;;;5022800;28;20125;-82
2022/11/25 02:33:36;;;;;;;22.23;5.63;;;7.20;99.90;;;;;;5052480;28;20033;-81
2022/11/25 02:36:11;;;;;;;29.65;5.45;;;7.10;99.90;;;;;;5024761;28;20067;-83
2022/11/25 02:38:44;;;;;;;24.58;5.75;;;7.20;99.90;;;;;;5022001;28;20049;-83
2022/11/25 02:41:35;;;;;;;37.28;6.30;;;7.30;99.90;;;;;;5042606;28;20147;-85
2022/11/25 02:44:01;;;;;;;28.23;5.57;;;7.40;99.90;;;;;;5027363;28;20528;-81
2022/11/25 02:46:28;;;;;;;21.52;4.85;;;7.20;99.90;;;;;;5026250;28;20040;-82
2022/11/25 02:48:56;;;;;;;27.02;5.70;;;7.50;99.90;;;;;;5040565;28;20235;-85
2022/11/25 02:51:28;;;;;;;26.17;5.70;;;7.10;99.90;;;;;;5040316;28;20035;-82
2022/11/25 02:53:55;;;;;;;22.60;5.30;;;7.40;99.90;;;;;;5024656;28;20067;-81
2022/11/25 02:56:24;;;;;;;30.38;5.85;;;7.30;99.90;;;;;;5023813;28;20384;-82
2022/11/25 02:58:50;;;;;;;26.13;5.90;;;7.40;99.90;;;;;;5023474;28;20040;-85
2022/11/25 03:01:16;;;;;;;26.33;5.63;;;7.10;99.90;;;;;;5045937;28;20536;-81
2022/11/25 03:03:41;;;;;;;25.38;5.57;;;7.20;99.90;;;;;;5060155;28;20055;-81
2022/11/25 03:06:09;;;;;;;33.83;6.20;;;7.40;99.90;;;;;;5069189;28;20044;-83
2022/11/25 03:08:36;;;;;;;28.00;6.05;;;7.20;99.90;;;;;;5066329;28;20040;-82
2022/11/25 03:11:03;;;;;;;30.48;5.82;;;7.20;99.90;;;;;;5058029;28;20046;-82
2022/11/25 03:13:29;;;;;;;26.67;5.97;;;7.40;99.90;;;;;;5046390;28;20035;-80
2022/11/25 03:15:55;;;;;;;29.65;6.40;;;7.40;99.90;;;;;;5046273;28;20046;-80
2022/11/25 03:18:20;;;;;;;27.23;6.38;;;7.50;99.90;;;;;;5067441;28;20127;-82
2022/11/25 03:20:50;;;;;;;31.33;6.75;;;7.40;99.90;;;;;;5095792;28;20032;-85
2022/11/25 03:23:16;;;;;;;33.80;6.93;;;7.60;99.90;;;;;;5052149;28;20060;-84
2022/11/25 03:25:41;;;;;;;32.30;6.72;;;7.40;99.90;;;;;;5051970;28;20070;-84
2022/11/25 03:28:07;;;;;;;28.23;6.30;;;7.30;99.90;;;;;;5057313;28;20040;-84
2022/11/25 03:30:33;;;;;;;30.00;6.75;;;7.60;99.90;;;;;;5069060;28;20487;-84
2022/11/25 03:32:58;;;;;;;35.17;7.43;;;7.60;99.90;;;;;;5074988;28;20228;-80
2022/11/25 03:35:24;;;;;;;26.42;6.93;;;7.70;99.90;;;;;;5103439;28;20363;-80
2022/11/25 03:37:50;;;;;;;24.75;7.18;;;7.30;99.90;;;;;;5068750;28;20056;-82
2022/11/25 03:40:52;;;;;;;30.25;7.30;;;7.40;99.90;;;;;;5071574;28;20130;-84
2022/11/25 03:43:19;;;;;;;29.08;6.93;;;7.60;99.90;;;;;;5068134;28;20052;-81
2022/11/25 03:45:49;;;;;;;37.67;7.75;;;7.60;99.90;;;;;;5066427;28;20044;-84
2022/11/25 03:48:14;;;;;;;30.02;6.72;;;7.50;99.90;;;;;;5054012;28;20036;-82
2022/11/25 03:50:41;;;;;;;33.55;7.60;;;7.50;99.90;;;;;;5082216;28;20563;-84
2022/11/25 03:53:44;;;;;;;27.27;6.78;;;7.50;99.90;;;;;;5081105;28;20447;-84
2022/11/25 03:56:11;;;;;;;27.20;7.35;;;7.70;99.90;;;;;;5082229;28;20036;-83
2022/11/25 03:58:38;;;;;;;31.17;8.07;;;7.40;99.90;;;;;;5095153;28;20116;-83
2022/11/25 04:01:04;;;;;;;28.55;8.15;;;7.70;99.90;;;;;;5078096;28;20052;-82
2022/11/25 04:03:29;;;;;;;27.55;7.93;;;7.70;99.90;;;;;;5118017;27;20079;-81
2022/11/25 04:05:55;;;;;;;39.10;8.70;;;7.40;99.90;;;;;;5112954;27;20461;-82
2022/11/25 04:08:21;;;;;;;37.55;8.88;;;7.50;99.90;;;;;;5055512;28;20044;-82
2022/11/25 04:10:51;;;;;;;29.90;8.85;;;7.60;99.90;;;;;;5058792;28;20052;-81
2022/11/25 04:13:18;;;;;;;27.88;8.95;;;7.80;99.90;;;;;;5053006;28;20048;-81
2022/11/25 04:15:48;;;;;;;34.70;9.00;;;7.50;99.90;;;;;;5040776;28;20052;-83
2022/11/25 04:18:16;;;;;;;34.63;9.43;;;7.50;99.90;;;;;;5054093;28;20036;-81
2022/11/25 04:20:42;;;;;;;38.33;10.05;;;7.60;99.90;;;;;;5076457;28;20053;-82
2022/11/25 04:23:09;;;;;;;30.60;9.77;;;7.60;99.90;;;;;;5062996;28;20074;-84
2022/11/25 04:25:35;;;;;;;46.03;9.63;;;7.50;99.90;;;;;;5086546;28;20109;-83
2022/11/25 04:28:02;;;;;;;31.00;9.60;;;7.50;99.90;;;;;;5088470;28;20122;-84
2022/11/25 04:30:28;;;;;;;39.40;10.40;;;7.80;99.90;;;;;;5068239;28;20040;-86
2022/11/25 04:32:53;;;;;;;39.63;10.27;;;7.50;99.90;;;;;;5091353;28;20040;-81
2022/11/25 04:35:19;;;;;;;37.60;10.88;;;7.70;99.90;;;;;;5075114;28;20075;-84
2022/11/25 04:37:45;;;;;;;34.05;10.43;;;7.70;99.90;;;;;;5073341;28;20040;-80
2022/11/25 04:40:11;;;;;;;37.15;10.77;;;7.50;99.90;;;;;;5094204;27;20109;-83
2022/11/25 04:42:38;;;;;;;38.17;10.85;;;7.60;99.90;;;;;;5105713;27;20041;-84
2022/11/25 04:45:09;;;;;;;32.95;10.20;;;7.50;99.90;;;;;;5121721;27;20062;-83
2022/11/25 04:47:35;;;;;;;40.13;10.70;;;7.70;99.90;;;;;;5119550;27;20043;-80
2022/11/25 04:50:02;;;;;;;33.20;10.80;;;7.50;99.90;;;;;;5138295;27;20069;-82
2022/11/25 04:52:28;;;;;;;39.03;10.95;;;7.80;99.90;;;;;;5086646;27;20047;-84
2022/11/25 04:55:13;;;;;;;29.25;10.52;;;7.80;99.90;;;;;;5104815;27;20027;-84
2022/11/25 04:57:38;;;;;;;34.90;9.77;;;7.60;99.90;;;;;;5120524;27;20039;-83
2022/11/25 05:00:06;;;;;;;40.15;11.10;;;7.60;99.90;;;;;;5106618;27;20055;-84
2022/11/25 05:02:31;;;;;;;36.35;10.55;;;7.70;99.90;;;;;;5091795;27;20044;-83
2022/11/25 05:04:57;;;;;;;35.95;11.43;;;7.60;99.90;;;;;;5116419;27;20096;-84
2022/11/25 05:07:26;;;;;;;36.70;10.68;;;7.80;99.90;;;;;;5095408;27;20047;-82
2022/11/25 05:09:52;;;;;;;41.78;10.20;;;7.80;99.90;;;;;;5134692;27;20421;-79
2022/11/25 05:12:22;;;;;;;36.08;10.82;;;7.70;99.90;;;;;;5112521;27;20031;-84
2022/11/25 05:14:48;;;;;;;32.53;10.50;;;7.70;99.90;;;;;;5088052;27;20041;-81
2022/11/25 05:17:16;;;;;;;34.95;11.52;;;7.90;99.90;;;;;;5136945;27;20048;-82
2022/11/25 05:19:43;;;;;;;36.38;11.25;;;7.50;99.90;;;;;;5103201;27;20156;-85
2022/11/25 05:22:17;;;;;;;34.63;11.10;;;7.70;99.90;;;;;;5089823;27;20031;-83
2022/11/25 05:24:43;;;;;;;;;;;7.70;99.90;;;;;;5120141;27;20058;-83
2022/11/25 05:27:09;;;;;;;35.55;10.85;;;7.60;99.90;;;;;;5104272;27;19927;-85
2022/11/25 05:29:36;;;;;;;34.60;10.93;;;7.80;99.90;;;;;;5124679;27;20513;-81
2022/11/25 05:32:02;;;;;;;36.85;11.88;;;7.50;99.90;;;;;;5104762;27;22243;-85
2022/11/25 05:34:28;;;;;;;42.10;12.20;;;7.70;99.90;;;;;;5138654;27;20077;-83
2022/11/25 05:36:54;;;;;;;38.17;11.60;;;7.70;99.90;;;;;;5092187;27;20470;-82
2022/11/25 05:39:20;;;;;;;35.60;10.60;;;7.80;99.90;;;;;;5104198;27;20047;-84
2022/11/25 05:41:46;;;;;;;38.35;12.60;;;7.60;99.90;;;;;;5088807;27;20401;-84
2022/11/25 05:44:12;;;;;;;45.08;12.10;;;7.80;99.90;;;;;;5120316;27;20174;-82
2022/11/25 05:46:37;;;;;;;47.05;12.35;;;7.50;99.90;;;;;;5119159;27;20042;-83
2022/11/25 05:49:03;;;;;;;38.65;12.65;;;7.70;99.90;;;;;;5104527;27;20093;-81
2022/11/25 05:51:29;;;;;;;37.90;11.63;;;7.60;99.90;;;;;;5086498;27;20035;-83
2022/11/25 05:58:07;;;;;;;36.45;12.55;;;7.60;99.90;;;;;;5120264;27;20100;-80
2022/11/25 06:00:33;;;;;;;32.97;12.00;;;7.70;99.90;;;;;;5109568;27;20070;-84
2022/11/25 06:02:59;;;;;;;41.88;12.30;;;7.50;99.90;;;;;;5128333;27;20046;-84
2022/11/25 06:05:24;;;;;;;35.83;12.63;;;7.70;99.90;;;;;;5122161;27;20039;-82
2022/11/25 06:07:51;;;;;;;43.38;13.77;;;7.80;99.90;;;;;;5111638;27;20414;-82
2022/11/25 06:10:18;;;;;;;35.33;12.85;;;7.50;99.90;;;;;;5120026;27;20051;-81
2022/11/25 06:12:44;;;;;;;41.63;12.27;;;7.60;99.90;;;;;;5116023;27;20145;-83
2022/11/25 06:15:10;;;;;;;40.55;12.68;;;7.70;99.90;;;;;;5121348;27;20027;-84
2022/11/25 06:17:36;;;;;;;41.03;12.57;;;7.50;99.90;;;;;;5085949;27;20118;-85
2022/11/25 06:20:03;;;;;;;43.40;12.68;;;7.60;99.90;;;;;;5118841;27;20112;-84
2022/11/25 06:22:29;;;;;;;40.53;12.30;;;7.60;99.90;;;;;;5105372;27;20035;-84
2022/11/25 06:28:19;;;;;;;36.67;11.63;;;7.90;99.90;;;;;;5115480;27;20377;-86
2022/11/25 06:30:45;;;;;;;34.80;11.70;;;8.00;99.90;;;;;;5142586;27;20130;-81
2022/11/25 06:33:11;;;;;;;36.08;12.23;;;7.80;99.90;;;;;;5089495;27;20031;-83
2022/11/25 06:35:37;;;;;;;35.58;11.73;;;7.90;99.90;;;;;;5108575;27;20156;-84
2022/11/25 06:38:03;;;;;;;41.67;12.88;;;7.70;99.90;;;;;;5127580;27;20099;-82
2022/11/25 06:41:08;;;;;;;40.55;11.98;;;7.90;99.90;;;;;;5096606;28;20066;-80
2022/11/25 06:43:33;;;;;;;39.42;11.30;;;7.90;99.90;;;;;;5094189;27;20146;-81
2022/11/25 06:46:04;;;;;;;37.97;11.07;;;7.80;99.90;;;;;;5124096;27;20065;-82
2022/11/25 06:48:31;;;;;;;37.25;11.63;;;7.90;99.90;;;;;;5101493;27;20187;-83
2022/11/25 06:50:58;;;;;;;42.80;11.48;;;7.90;99.90;;;;;;5101671;27;20090;-84
2022/11/25 06:53:24;;;;;;;35.88;11.70;;;7.90;99.90;;;;;;5100822;27;20040;-80
2022/11/25 06:59:15;;;;;;;26.85;10.10;;;7.70;99.90;;;;;;5111462;27;20047;-81
2022/11/25 07:01:40;;;;;;;33.75;10.95;;;8.00;99.90;;;;;;5124767;27;20064;-86
2022/11/25 07:04:06;;;;;;;32.20;10.73;;;8.00;99.90;;;;;;5089602;27;20038;-84
2022/11/25 07:06:32;;;;;;;35.47;10.65;;;8.00;99.90;;;;;;5103137;27;20453;-86
2022/11/25 07:08:58;;;;;;;32.85;9.40;;;7.90;99.90;;;;;;5101168;27;20489;-85
2022/11/25 07:11:32;;;;;;;34.60;9.73;;;8.00;99.90;;;;;;5117433;27;20043;-84
2022/11/25 07:14:07;;;;;;;32.35;10.13;;;7.80;99.90;;;;;;5122193;27;20047;-84
2022/11/25 07:16:33;;;;;;;27.52;9.32;;;8.10;99.90;;;;;;5117091;27;22436;-83
2022/11/25 07:19:00;;;;;;;29.60;8.95;;;7.70;99.90;;;;;;5105399;27;20068;-84
2022/11/25 07:21:29;;;;;;;28.25;8.40;;;7.80;99.90;;;;;;5119993;27;20031;-85
2022/11/25 07:23:56;;;;;;;30.27;8.25;;;7.80;99.90;;;;;;5124311;27;20156;-84
2022/11/25 07:26:24;;;;;;;31.20;8.25;;;7.70;99.90;;;;;;5090359;28;20064;-82
2022/11/25 07:28:52;;;;;;;22.15;7.93;;;8.10;99.90;;;;;;5090714;27;20044;-80
2022/11/25 07:31:20;;;;;;;25.75;7.50;;;8.10;99.90;;;;;;5126202;27;20043;-82
2022/11/25 07:33:47;;;;;;;24.83;7.25;;;8.10;99.90;;;;;;5109390;27;20114;-80
2022/11/25 07:36:13;;;;;;;23.02;6.80;;;8.10;99.90;;;;;;5127887;27;20035;-83
2022/11/25 07:38:40;;;;;;;27.55;7.20;;;8.10;99.90;;;;;;5142710;27;20043;-80
2022/11/25 07:41:15;;;;;;;22.38;6.38;;;8.20;99.90;;;;;;5141724;27;20123;-77
2022/11/25 07:43:43;;;;;;;;;;;7.80;99.90;;;;;;5091605;28;20118;-80
2022/11/25 07:46:12;;;;;;;28.08;6.47;;;7.80;99.90;;;;;;5119704;27;19916;-81
2022/11/25 07:48:41;;;;;;;28.02;6.40;;;7.80;99.90;;;;;;5138095;27;20058;-77
2022/11/25 07:51:18;;;;;;;23.38;6.15;;;7.90;99.90;;;;;;5116468;28;20062;-82
2022/11/25 07:53:46;;;;;;;24.45;6.07;;;7.90;99.90;;;;;;5120850;27;20366;-79
2022/11/25 07:56:13;;;;;;;24.00;6.00;;;8.20;99.90;;;;;;5149258;27;20027;-80
2022/11/25 07:58:39;;;;;;;21.00;5.50;;;8.00;99.90;;;;;;5132596;27;20105;-81
2022/11/25 08:01:06;;;;;;;18.25;4.90;;;7.90;99.90;;;;;;5106905;27;20043;-81
2022/11/25 08:03:33;;;;;;;20.40;5.18;;;7.90;99.90;;;;;;5123544;27;20169;-83
2022/11/25 08:06:05;;;;;;;27.67;5.15;;;7.80;99.90;;;;;;5105862;27;20366;-82
2022/11/25 08:08:33;;;;;;;23.70;4.85;;;7.80;99.90;;;;;;5119054;27;20034;-79
2022/11/25 08:10:59;;;;;;;16.40;4.78;;;8.00;99.90;;;;;;5094195;27;20032;-82
2022/11/25 08:13:26;;;;;;;18.10;4.50;;;7.60;99.90;;;;;;5129181;27;20065;-82
2022/11/25 08:15:51;;;;;;;30.00;5.43;;;7.80;99.90;;;;;;5114375;27;20370;-80
2022/11/25 08:18:18;;;;;;;15.55;4.63;;;7.80;99.90;;;;;;5130403;27;20045;-79
2022/11/25 08:20:43;;;;;;;15.68;4.30;;;7.70;99.90;;;;;;5108436;27;20477;-79
2022/11/25 08:23:09;;;;;;;15.90;4.55;;;7.80;99.90;;;;;;5125850;27;20039;-80
2022/11/25 08:25:40;;;;;;;19.63;4.35;;;7.80;99.90;;;;;;5092712;27;20543;-85
2022/11/25 08:28:07;;;;;;;19.88;5.10;;;7.50;99.90;;;;;;5142494;27;20119;-83
2022/11/25 08:30:32;;;;;;;21.40;5.50;;;7.50;99.90;;;;;;5144932;27;20031;-83
2022/11/25 08:32:58;;;;;;;15.15;4.80;;;7.60;99.90;;;;;;5097164;27;20044;-78
2022/11/25 08:35:24;;;;;;;13.57;5.07;;;7.50;99.90;;;;;;5134111;27;20062;-80
2022/11/25 08:37:50;;;;;;;24.15;5.45;;;7.80;99.90;;;;;;5115737;27;20043;-86
2022/11/25 08:44:02;;;;;;;20.70;5.13;;;7.80;99.90;;;;;;5128801;27;20030;-81
2022/11/25 08:46:35;;;;;;;20.52;5.40;;;7.80;99.90;;;;;;5118022;27;20144;-82
2022/11/25 08:49:01;;;;;;;21.10;5.00;;;7.60;99.90;;;;;;5101742;27;21110;-82
2022/11/25 08:51:29;;;;;;;19.58;4.97;;;7.60;99.90;;;;;;5146847;27;20058;-84
2022/11/25 09:04:39;;;;;;;20.47;4.80;;;7.90;99.90;;;;;;6196623;22;1291084;-84
2022/11/25 09:07:05;;;;;;;15.50;4.65;;;7.80;99.90;;;;;;6221576;23;20323;-81
2022/11/25 09:09:31;;;;;;;20.73;4.68;;;7.90;99.90;;;;;;6195643;23;20019;-82
2022/11/25 09:11:57;;;;;;;20.42;5.10;;;7.70;99.90;;;;;;6219914;23;20020;-85
2022/11/25 09:14:22;;;;;;;17.45;5.20;;;7.90;99.90;;;;;;6193041;23;20012;-80
2022/11/25 09:16:48;;;;;;;18.35;5.20;;;7.90;99.90;;;;;;6246879;23;20332;-84
2022/11/25 09:19:14;;;;;;;16.95;4.97;;;7.90;99.90;;;;;;6246989;23;20019;-81
2022/11/25 09:21:42;;;;;;;18.13;5.10;;;7.90;99.90;;;;;;6247418;23;20008;-81
2022/11/25 09:24:08;;;;;;;19.50;4.90;;;7.90;99.90;;;;;;6218742;23;20023;-79
2022/11/25 09:26:36;;;;;;;15.68;4.95;;;8.00;99.90;;;;;;6195992;23;20011;-82
2022/11/25 09:29:02;;;;;;;21.60;5.25;;;8.20;99.90;;;;;;6198839;23;20085;-80
2022/11/25 09:31:28;;;;;;;15.93;4.90;;;8.30;99.90;;;;;;6224384;23;20444;-83
2022/11/25 09:33:56;;;;;;;18.38;4.95;;;8.10;99.90;;;;;;6198782;23;20016;-81
2022/11/25 09:36:22;;;;;;;20.38;5.78;;;8.10;99.90;;;;;;6252572;23;20019;-83
2022/11/25 09:38:48;;;;;;;15.43;5.35;;;8.20;99.90;;;;;;6253370;23;20015;-81
2022/11/25 09:47:24;;;;;;;19.42;5.40;;;8.20;99.90;;;;;;6218770;23;20019;-79
2022/11/25 09:50:11;;;;;;;15.27;5.25;;;8.50;99.90;;;;;;6220583;23;20012;-84
2022/11/25 09:53:03;;;;;;;20.10;4.85;;;8.30;99.90;;;;;;6224829;23;20015;-85
2022/11/25 09:55:37;;;;;;;16.00;4.88;;;8.60;99.90;;;;;;6257465;23;20039;-84
2022/11/25 09:58:38;;;;;;;18.15;5.10;;;8.40;99.90;;;;;;6203923;23;20012;-84
2022/11/25 10:01:11;;;;;;;20.25;4.93;;;8.50;99.90;;;;;;6228100;23;20534;-84
2022/11/25 10:03:53;;;;;;;11.07;4.38;;;8.50;99.90;;;;;;6206848;23;20024;-85
2022/11/25 10:06:25;;;;;;;17.80;4.47;;;8.70;99.90;;;;;;6163303;23;20021;-82
2022/11/25 10:09:02;;;;;;;18.45;4.57;;;8.80;99.90;;;;;;6188010;23;20075;-85
2022/11/25 10:11:50;;;;;;;17.77;4.10;;;8.80;99.90;;;;;;6188335;23;20047;-82
2022/11/25 10:14:28;;;;;;;18.00;4.78;;;8.80;99.90;;;;;;6163143;23;20349;-84
2022/11/25 10:17:08;;;;;;;17.30;4.47;;;8.60;99.90;;;;;;6188977;23;20013;-86
2022/11/25 10:19:37;;;;;;;18.98;4.75;;;8.70;99.90;;;;;;6163420;23;20023;-86
2022/11/25 10:22:31;;;;;;;13.40;4.20;;;8.80;99.90;;;;;;6188595;23;20075;-85
2022/11/25 10:25:00;;;;;;;16.17;3.90;;;9.00;99.90;;;;;;6182914;23;20168;-85
2022/11/25 10:27:54;;;;;;;17.38;4.22;;;8.90;99.90;;;;;;6164364;23;20099;-83
2022/11/25 10:30:25;;;;;;;15.60;4.10;;;9.10;99.90;;;;;;6188632;23;20051;-88
2022/11/25 10:32:54;;;;;;;15.75;4.68;;;9.20;99.90;;;;;;6188280;23;20016;-83
2022/11/25 10:35:42;;;;;;;12.70;3.83;;;9.10;99.90;;;;;;6163848;23;20020;-86
2022/11/25 10:38:17;;;;;;;14.63;4.28;;;9.30;99.90;;;;;;6162794;23;20013;-82
2022/11/25 10:40:47;;;;;;;17.05;4.38;;;9.00;99.90;;;;;;6187703;23;20013;-82
2022/11/25 10:43:14;;;;;;;17.65;4.05;;;9.20;99.90;;;;;;6189445;23;20107;-81
2022/11/25 10:46:08;;;;;;;27.02;4.35;;;9.30;99.90;;;;;;6190997;23;20021;-84
2022/11/25 10:48:51;;;;;;;14.00;4.15;;;9.30;99.90;;;;;;6216958;23;20020;-87
2022/11/25 10:51:36;;;;;;;14.52;3.90;;;9.10;99.90;;;;;;6163909;23;20032;-89
2022/11/25 10:54:11;;;;;;;19.90;3.95;;;9.10;99.90;;;;;;6188196;23;20459;-86
2022/11/25 10:56:49;;;;;;;20.10;4.38;;;9.30;99.90;;;;;;6188497;23;20075;-86
2022/11/25 10:59:36;;;;;;;13.90;3.80;;;9.40;99.90;;;;;;6164622;23;20070;-85
2022/11/25 11:02:23;;;;;;;16.35;3.83;;;9.30;99.90;;;;;;6176299;23;20008;-81
2022/11/25 11:05:07;;;;;;;12.55;3.78;;;9.60;99.90;;;;;;6191311;23;20017;-87
2022/11/25 11:07:36;;;;;;;15.95;3.40;;;9.50;99.90;;;;;;6214673;23;20023;-85
2022/11/25 11:10:24;;;;;;;21.90;3.65;;;9.40;99.90;;;;;;6215399;23;20015;-86
2022/11/25 11:13:00;;;;;;;16.52;3.70;;;9.50;99.90;;;;;;6193912;23;20013;-81
2022/11/25 11:15:32;;;;;;;17.70;4.10;;;9.70;99.90;;;;;;6219670;23;20012;-83
2022/11/25 11:18:13;;;;;;;20.85;3.92;;;9.60;99.90;;;;;;6189102;23;20008;-87
2022/11/25 11:20:48;;;;;;;18.30;3.90;;;9.70;99.90;;;;;;6187889;23;20461;-85
2022/11/25 11:23:14;;;;;;;11.23;3.72;;;9.90;99.90;;;;;;6212286;23;20027;-84
2022/11/25 11:25:42;;;;;;;17.83;3.65;;;9.80;99.90;;;;;;6211921;23;20095;-85
2022/11/25 11:28:38;;;;;;;14.95;3.65;;;9.80;99.90;;;;;;6184044;23;20055;-84
2022/11/25 11:31:25;;;;;;;16.25;3.97;;;10.10;99.90;;;;;;6183676;23;20021;-87
2022/11/25 11:34:17;;;;;;;11.43;3.55;;;10.00;99.90;;;;;;6207767;23;20123;-85
2022/11/25 11:36:45;;;;;;;14.60;3.75;;;10.10;99.90;;;;;;6139177;23;20012;-84
2022/11/25 11:39:27;;;;;;;12.70;3.47;;;10.10;99.90;;;;;;6207130;23;20023;-86
2022/11/25 11:42:07;;;;;;;18.85;3.70;;;10.20;99.90;;;;;;6183554;23;20020;-85
2022/11/25 11:44:50;;;;;;;16.30;3.45;;;10.20;99.90;;;;;;6157222;23;20193;-85
2022/11/25 11:47:50;;;;;;;14.38;3.30;;;10.30;99.90;;;;;;6209673;23;20026;-84
2022/11/25 11:50:29;;;;;;;19.23;3.88;;;10.10;99.90;;;;;;6182160;23;20017;-85
2022/11/25 11:53:20;;;;;;;15.13;3.60;;;10.30;99.90;;;;;;6184229;23;20021;-84
2022/11/25 11:56:42;;;;;;;24.50;3.40;;;10.10;99.90;;;;;;6211755;23;20048;-83
2022/11/25 11:59:30;;;;;;;17.60;3.75;;;10.00;99.90;;;;;;6187336;23;20013;-81
2022/11/25 12:02:22;;;;;;;17.50;2.95;;;10.10;99.90;;;;;;6195299;23;20043;-84
2022/11/25 12:05:09;;;;;;;15.35;3.15;;;10.00;99.90;;;;;;6069030;23;20029;-85
2022/11/25 12:07:53;;;;;;;15.70;2.78;;;10.20;99.90;;;;;;6063549;23;20018;-83
2022/11/25 12:10:28;;;;;;;23.75;3.05;;;10.20;99.90;;;;;;6038951;23;20021;-84
2022/11/25 12:13:12;;;;;;;20.33;3.55;;;10.20;99.90;;;;;;6064935;23;20021;-84
2022/11/25 12:15:46;;;;;;;19.88;3.40;;;10.30;99.90;;;;;;6037463;23;20015;-85
2022/11/25 12:18:18;;;;;;;15.93;2.90;;;10.40;99.90;;;;;;6063405;23;20010;-86
2022/11/25 12:21:14;;;;;;;17.75;3.40;;;10.40;99.90;;;;;;6041243;23;20507;-86
2022/11/25 12:24:02;;;;;;;21.50;3.22;;;10.40;99.90;;;;;;5906639;24;20035;-83
2022/11/25 12:26:49;;;;;;;14.48;2.80;;;10.50;99.90;;;;;;5906862;24;20063;-83
2022/11/25 12:29:24;;;;;;;18.40;3.53;;;10.60;99.90;;;;;;5900765;24;20032;-84
2022/11/25 12:31:58;;;;;;;20.23;3.35;;;10.70;99.90;;;;;;5925321;24;20323;-85
2022/11/25 12:34:37;;;;;;;24.30;3.45;;;10.80;99.90;;;;;;5899431;24;20020;-84
2022/11/25 12:37:10;;;;;;;23.65;3.35;;;10.70;99.90;;;;;;5901053;24;20162;-85
2022/11/25 12:39:55;;;;;;;24.73;3.47;;;10.80;99.90;;;;;;5927852;24;20422;-87
2022/11/25 12:42:24;;;;;;;;;;;10.80;99.90;;;;;;6007030;23;20019;-84
2022/11/25 12:45:03;;;;;;;23.75;3.05;;;10.70;99.90;;;;;;6043830;23;19941;-81
2022/11/25 12:47:29;;;;;;;19.65;3.40;;;10.50;99.90;;;;;;6019277;23;20018;-83
2022/11/25 12:49:56;;;;;;;24.33;3.20;;;10.60;99.90;;;;;;6037981;23;20079;-84
2022/11/25 12:52:31;;;;;;;25.55;3.88;;;10.70;99.90;;;;;;6037149;23;20049;-89
2022/11/25 12:55:04;;;;;;;21.95;3.10;;;10.50;99.90;;;;;;6009806;23;20030;-82
2022/11/25 12:58:15;;;;;;;26.63;3.80;;;10.80;99.90;;;;;;6011733;23;20022;-82
2022/11/25 13:01:05;;;;;;;22.02;2.92;;;10.80;99.90;;;;;;6119211;23;20012;-87
2022/11/25 13:04:09;;;;;;;25.20;3.78;;;10.80;99.90;;;;;;6196426;23;20034;-83
2022/11/25 13:06:37;;;;;;;21.65;3.63;;;10.90;99.90;;;;;;6188110;23;20047;-83
2022/11/25 13:09:45;;;;;;;20.25;3.53;;;11.00;99.90;;;;;;6214662;23;20371;-85
2022/11/25 13:12:32;;;;;;;23.67;4.00;;;11.00;99.90;;;;;;6243486;23;20062;-86
2022/11/25 13:15:22;;;;;;;18.50;4.32;;;10.90;99.90;;;;;;6193047;23;20044;-88
2022/11/25 13:17:49;;;;;;;22.75;3.80;;;10.90;99.90;;;;;;6244102;23;20004;-83
2022/11/25 13:20:32;;;;;;;24.38;4.28;;;11.00;99.90;;;;;;6196955;23;20047;-83
2022/11/25 13:23:03;;;;;;;29.73;3.83;;;11.00;99.90;;;;;;6222632;23;20078;-83
2022/11/25 13:25:30;;;;;;;19.38;2.90;;;11.00;99.90;;;;;;6218419;23;20047;-84
2022/11/25 13:27:58;;;;;;;19.48;3.08;;;11.10;99.90;;;;;;6197414;23;20016;-83
2022/11/25 13:30:33;;;;;;;21.73;3.17;;;11.00;99.90;;;;;;6222189;23;20016;-85
2022/11/25 13:33:10;;;;;;;;;;;11.10;99.90;;;;;;6222599;23;20019;-86
2022/11/25 13:35:42;;;;;;;21.00;3.60;;;11.00;99.90;;;;;;6191563;23;19915;-88
2022/11/25 13:38:55;;;;;;;18.95;3.28;;;11.00;99.90;;;;;;6190663;23;20070;-85
2022/11/25 13:41:43;;;;;;;21.92;3.95;;;10.90;99.90;;;;;;6217796;23;20012;-81
2022/11/25 13:44:22;;;;;;;26.38;3.60;;;10.80;99.90;;;;;;6219643;23;20023;-85
2022/11/25 13:46:51;;;;;;;23.77;3.80;;;10.80;99.90;;;;;;6220934;23;20016;-85
2022/11/25 13:49:49;;;;;;;14.73;2.95;;;10.90;99.90;;;;;;6192868;23;20024;-81
2022/11/25 13:52:46;;;;;;;26.20;3.65;;;11.00;99.90;;;;;;6191630;23;20146;-86